createdAt,value
2018-01-26T00:00:58.688Z,98.36
2018-01-26T00:01:58.641Z,98.27
2018-01-26T00:02:58.592Z,98.18
2018-01-26T00:03:58.545Z,98.55
2018-01-26T00:04:58.500Z,97.89
2018-01-26T00:05:58.452Z,98.36
2018-01-26T00:06:58.406Z,98.36
2018-01-26T00:07:58.360Z,98.36
2018-01-26T00:08:58.314Z,97.70
2018-01-26T00:09:58.267Z,98.27
2018-01-26T00:10:58.423Z,98.55
2018-01-26T00:11:58.175Z,98.65
2018-01-26T00:12:58.330Z,98.74
2018-01-26T00:13:58.081Z,98.08
2018-01-26T00:14:58.036Z,98.84
2018-01-26T00:15:57.989Z,98.36
2018-01-26T00:16:57.943Z,98.36
2018-01-26T00:17:57.896Z,98.46
2018-01-26T00:18:57.850Z,98.36
2018-01-26T00:19:57.805Z,98.18
2018-01-26T00:20:57.758Z,98.36
2018-01-26T00:21:57.711Z,97.89
2018-01-26T00:22:57.664Z,98.18
2018-01-26T00:23:57.619Z,98.36
2018-01-26T00:24:57.573Z,98.08
2018-01-26T00:25:57.526Z,98.08
2018-01-26T00:26:57.480Z,97.70
2018-01-26T00:27:57.443Z,98.55
2018-01-26T00:28:57.387Z,97.89
2018-01-26T00:29:57.341Z,97.89
2018-01-26T00:30:57.295Z,98.18
2018-01-26T00:31:57.249Z,97.79
2018-01-26T00:32:57.203Z,97.79
2018-01-26T00:33:57.156Z,97.79
2018-01-26T00:34:57.110Z,97.79
2018-01-26T00:35:57.067Z,98.08
2018-01-26T00:36:57.017Z,97.79
2018-01-26T00:37:56.971Z,97.79
2018-01-26T00:38:56.925Z,97.79
2018-01-26T00:39:56.878Z,98.18
2018-01-26T00:40:56.833Z,97.99
2018-01-26T00:41:56.785Z,98.18
2018-01-26T00:42:56.739Z,97.79
2018-01-26T00:43:56.693Z,97.89
2018-01-26T00:44:56.647Z,97.79
2018-01-26T00:45:56.600Z,97.70
2018-01-26T00:46:56.554Z,98.36
2018-01-26T00:47:56.558Z,98.08
2018-01-26T00:48:56.461Z,97.60
2018-01-26T00:49:56.865Z,97.99
2018-01-26T00:50:56.768Z,97.89
2018-01-26T00:51:56.622Z,97.79
2018-01-26T00:52:56.676Z,97.60
2018-01-26T00:53:56.579Z,97.89
2018-01-26T00:54:56.433Z,98.18
2018-01-26T00:55:56.337Z,98.36
2018-01-26T00:56:56.241Z,98.36
2018-01-26T00:57:56.244Z,98.36
2018-01-26T00:58:56.148Z,98.36
2018-01-26T00:59:56.052Z,97.79
2018-01-26T01:00:56.108Z,97.70
2018-01-26T01:01:55.858Z,98.18
2018-01-26T01:02:55.813Z,97.79
2018-01-26T01:03:55.767Z,97.99
2018-01-26T01:04:55.720Z,97.99
2018-01-26T01:05:55.674Z,97.99
2018-01-26T01:06:55.630Z,98.08
2018-01-26T01:07:55.581Z,97.70
2018-01-26T01:08:55.536Z,97.79
2018-01-26T01:09:55.488Z,97.79
2018-01-26T01:10:55.445Z,96.94
2018-01-26T01:11:55.397Z,97.51
2018-01-26T01:12:55.351Z,97.13
2018-01-26T01:13:55.304Z,96.94
2018-01-26T01:14:55.258Z,96.84
2018-01-26T01:15:55.212Z,97.22
2018-01-26T01:16:55.166Z,97.03
2018-01-26T01:17:55.119Z,96.94
2018-01-26T01:18:55.073Z,96.17
2018-01-26T01:19:55.027Z,96.46
2018-01-26T01:20:54.981Z,96.46
2018-01-26T01:21:54.934Z,96.46
2018-01-26T01:22:54.888Z,96.17
2018-01-26T01:23:54.843Z,96.46
2018-01-26T01:24:54.795Z,96.75
2018-01-26T01:25:54.748Z,96.75
2018-01-26T01:26:54.702Z,96.84
2018-01-26T01:27:54.656Z,96.84
2018-01-26T01:28:54.610Z,96.75
2018-01-26T01:29:54.563Z,96.65
2018-01-26T01:30:54.517Z,96.65
2018-01-26T01:31:54.471Z,96.55
2018-01-26T01:32:54.425Z,96.36
2018-01-26T01:33:54.378Z,96.84
2018-01-26T01:34:54.332Z,96.46
2018-01-26T01:35:54.285Z,96.27
2018-01-26T01:36:54.239Z,96.65
2018-01-26T01:37:54.192Z,96.08
2018-01-26T01:38:54.145Z,96.46
2018-01-26T01:39:54.099Z,95.98
2018-01-26T01:40:54.053Z,96.17
2018-01-26T01:41:54.006Z,95.98
2018-01-26T01:42:53.959Z,96.36
2018-01-26T01:43:53.913Z,96.46
2018-01-26T01:44:53.866Z,95.98
2018-01-26T01:45:53.819Z,96.17
2018-01-26T01:46:53.773Z,96.27
2018-01-26T01:47:53.726Z,96.46
2018-01-26T01:48:53.681Z,96.31
2018-01-26T01:49:53.633Z,96.31
2018-01-26T01:50:53.589Z,96.36
2018-01-26T01:51:53.540Z,96.46
2018-01-26T01:52:53.493Z,96.46
2018-01-26T01:53:53.447Z,96.36
2018-01-26T01:54:53.399Z,96.36
2018-01-26T01:55:53.353Z,96.36
2018-01-26T01:56:53.308Z,96.65
2018-01-26T01:57:53.259Z,96.17
2018-01-26T01:58:53.213Z,95.89
2018-01-26T01:59:53.166Z,96.08
2018-01-26T02:00:53.121Z,96.55
2018-01-26T02:01:53.072Z,96.27
2018-01-26T02:02:53.026Z,96.55
2018-01-26T02:03:52.979Z,96.55
2018-01-26T02:04:52.983Z,96.08
2018-01-26T02:05:52.885Z,96.65
2018-01-26T02:06:52.841Z,96.46
2018-01-26T02:07:52.792Z,96.27
2018-01-26T02:08:52.745Z,96.08
2018-01-26T02:09:52.698Z,96.08
2018-01-26T02:10:52.651Z,96.55
2018-01-26T02:11:52.605Z,96.17
2018-01-26T02:12:52.562Z,96.22
2018-01-26T02:13:52.511Z,95.98
2018-01-26T02:14:52.464Z,96.51
2018-01-26T02:15:52.419Z,96.65
2018-01-26T02:16:52.371Z,96.65
2018-01-26T02:17:52.323Z,96.31
2018-01-26T02:18:52.277Z,96.60
2018-01-26T02:19:52.230Z,96.41
2018-01-26T02:20:52.183Z,97.17
2018-01-26T02:21:52.135Z,96.98
2018-01-26T02:22:52.089Z,96.98
2018-01-26T02:23:52.042Z,96.89
2018-01-26T02:24:51.995Z,96.89
2018-01-26T02:25:51.947Z,96.84
2018-01-26T02:26:51.901Z,96.98
2018-01-26T02:27:51.854Z,96.89
2018-01-26T02:28:51.807Z,96.98
2018-01-26T02:29:51.762Z,96.89
2018-01-26T02:30:51.717Z,96.89
2018-01-26T02:31:51.666Z,97.36
2018-01-26T02:32:51.619Z,97.46
2018-01-26T02:33:51.571Z,96.89
2018-01-26T02:34:51.524Z,97.84
2018-01-26T02:35:51.482Z,97.65
2018-01-26T02:36:51.431Z,97.79
2018-01-26T02:37:51.383Z,98.36
2018-01-26T02:38:51.337Z,98.27
2018-01-26T02:39:51.290Z,97.89
2018-01-26T02:40:51.243Z,98.08
2018-01-26T02:41:51.196Z,98.18
2018-01-26T02:42:51.150Z,98.41
2018-01-26T02:43:51.106Z,98.36
2018-01-26T02:44:51.056Z,98.27
2018-01-26T02:45:51.008Z,98.46
2018-01-26T02:46:50.963Z,97.60
2018-01-26T02:47:50.915Z,98.65
2018-01-26T02:48:50.868Z,98.27
2018-01-26T02:49:50.821Z,98.36
2018-01-26T02:50:50.775Z,98.13
2018-01-26T02:51:50.731Z,98.22
2018-01-26T02:52:50.681Z,98.32
2018-01-26T02:53:50.634Z,98.03
2018-01-26T02:54:50.587Z,98.98
2018-01-26T02:55:50.546Z,98.79
2018-01-26T02:56:50.494Z,98.69
2018-01-26T02:57:50.447Z,98.69
2018-01-26T02:58:50.403Z,98.69
2018-01-26T02:59:50.353Z,98.98
2018-01-26T03:00:50.306Z,99.08
2018-01-26T03:01:50.259Z,99.08
2018-01-26T03:02:50.218Z,99.08
2018-01-26T03:03:50.217Z,99.27
2018-01-26T03:04:50.120Z,98.65
2018-01-26T03:05:50.072Z,98.69
2018-01-26T03:06:50.025Z,99.03
2018-01-26T03:07:49.984Z,98.84
2018-01-26T03:08:49.932Z,98.88
2018-01-26T03:09:49.885Z,98.65
2018-01-26T03:10:49.842Z,98.98
2018-01-26T03:11:49.792Z,98.27
2018-01-26T03:12:49.746Z,98.36
2018-01-26T03:13:49.698Z,98.18
2018-01-26T03:14:49.655Z,98.22
2018-01-26T03:15:49.606Z,97.89
2018-01-26T03:16:49.560Z,97.89
2018-01-26T03:17:49.512Z,98.36
2018-01-26T03:18:49.466Z,98.18
2018-01-26T03:19:49.420Z,97.60
2018-01-26T03:20:49.373Z,97.89
2018-01-26T03:21:49.325Z,98.08
2018-01-26T03:22:49.279Z,97.70
2018-01-26T03:23:49.233Z,98.32
2018-01-26T03:24:49.186Z,98.18
2018-01-26T03:25:49.139Z,97.60
2018-01-26T03:26:49.092Z,97.79
2018-01-26T03:27:49.048Z,97.74
2018-01-26T03:28:49.000Z,97.99
2018-01-26T03:29:48.953Z,97.60
2018-01-26T03:30:48.907Z,97.65
2018-01-26T03:31:48.866Z,97.51
2018-01-26T03:32:48.816Z,97.89
2018-01-26T03:33:48.767Z,97.99
2018-01-26T03:34:48.719Z,97.51
2018-01-26T03:35:48.673Z,97.46
2018-01-26T03:36:48.627Z,97.55
2018-01-26T03:37:48.579Z,97.74
2018-01-26T03:38:48.533Z,97.65
2018-01-26T03:39:48.486Z,97.74
2018-01-26T03:40:48.439Z,97.46
2018-01-26T03:41:48.393Z,97.60
2018-01-26T03:42:48.346Z,97.60
2018-01-26T03:43:48.301Z,97.55
2018-01-26T03:44:48.253Z,98.08
2018-01-26T03:45:48.206Z,97.65
2018-01-26T03:46:48.159Z,98.32
2018-01-26T03:47:48.116Z,98.46
2018-01-26T03:48:48.066Z,98.13
2018-01-26T03:49:48.019Z,98.36
2018-01-26T03:50:47.972Z,97.93
2018-01-26T03:51:47.926Z,98.13
2018-01-26T03:52:47.879Z,98.32
2018-01-26T03:53:47.832Z,97.93
2018-01-26T03:54:47.785Z,98.13
2018-01-26T03:55:47.739Z,98.98
2018-01-26T03:56:48.096Z,98.88
2018-01-26T03:57:47.994Z,98.88
2018-01-26T03:58:47.998Z,98.79
2018-01-26T03:59:47.901Z,98.79
2018-01-26T04:00:47.755Z,98.41
2018-01-26T04:01:47.657Z,98.50
2018-01-26T04:02:47.510Z,98.60
2018-01-26T04:03:47.514Z,98.60
2018-01-26T04:04:47.418Z,98.50
2018-01-26T04:05:47.320Z,98.60
2018-01-26T04:06:47.235Z,98.50
2018-01-26T04:07:47.177Z,98.50
2018-01-26T04:08:47.130Z,98.79
2018-01-26T04:09:47.083Z,98.41
2018-01-26T04:10:47.036Z,98.79
2018-01-26T04:11:46.989Z,98.69
2018-01-26T04:12:46.953Z,98.79
2018-01-26T04:13:46.896Z,98.69
2018-01-26T04:14:46.849Z,98.88
2018-01-26T04:15:46.802Z,98.98
2018-01-26T04:16:46.756Z,98.22
2018-01-26T04:17:46.758Z,98.22
2018-01-26T04:18:46.661Z,98.22
2018-01-26T04:19:46.615Z,98.41
2018-01-26T04:20:46.568Z,98.13
2018-01-26T04:21:46.522Z,97.93
2018-01-26T04:22:46.474Z,97.93
2018-01-26T04:23:46.427Z,98.41
2018-01-26T04:24:46.380Z,98.41
2018-01-26T04:25:46.333Z,98.13
2018-01-26T04:26:46.288Z,98.32
2018-01-26T04:27:46.240Z,98.50
2018-01-26T04:28:46.193Z,98.22
2018-01-26T04:29:46.145Z,98.03
2018-01-26T04:30:46.099Z,98.32
2018-01-26T04:32:46.006Z,98.32
2018-01-26T04:33:45.958Z,98.41
2018-01-26T04:34:45.911Z,98.22
2018-01-26T04:35:45.865Z,98.32
2018-01-26T04:36:45.843Z,98.22
2018-01-26T04:37:45.770Z,98.98
2018-01-26T04:38:45.724Z,99.08
2018-01-26T04:39:45.681Z,98.98
2018-01-26T04:40:45.630Z,98.98
2018-01-26T04:41:45.583Z,98.98
2018-01-26T04:42:45.536Z,98.98
2018-01-26T04:43:45.489Z,99.08
2018-01-26T04:44:45.443Z,98.69
2018-01-26T04:45:45.396Z,98.50
2018-01-26T04:46:45.349Z,98.60
2018-01-26T04:47:45.302Z,98.60
2018-01-26T04:48:45.255Z,99.17
2018-01-26T04:49:45.208Z,99.27
2018-01-26T04:50:45.163Z,99.08
2018-01-26T04:51:45.115Z,99.08
2018-01-26T04:52:45.068Z,98.88
2018-01-26T04:53:45.020Z,99.08
2018-01-26T04:54:44.974Z,98.69
2018-01-26T04:55:44.927Z,98.88
2018-01-26T04:56:44.881Z,98.60
2018-01-26T04:57:44.833Z,98.50
2018-01-26T04:58:44.786Z,98.98
2018-01-26T04:59:44.739Z,98.79
2018-01-26T05:00:44.692Z,98.79
2018-01-26T05:01:44.644Z,98.88
2018-01-26T05:02:44.597Z,98.65
2018-01-26T05:03:44.549Z,98.83
2018-01-26T05:04:44.503Z,98.65
2018-01-26T05:05:44.457Z,98.83
2018-01-26T05:06:44.408Z,98.65
2018-01-26T05:07:44.362Z,99.02
2018-01-26T05:08:44.362Z,99.22
2018-01-26T05:09:44.264Z,99.41
2018-01-26T05:10:44.217Z,99.50
2018-01-26T05:11:44.171Z,99.41
2018-01-26T05:12:44.128Z,99.50
2018-01-26T05:13:44.074Z,99.31
2018-01-26T05:14:44.026Z,99.60
2018-01-26T05:15:43.979Z,99.50
2018-01-26T05:16:43.931Z,99.22
2018-01-26T05:17:43.883Z,99.22
2018-01-26T05:18:43.836Z,99.50
2018-01-26T05:19:43.788Z,99.22
2018-01-26T05:20:43.745Z,99.60
2018-01-26T05:21:43.691Z,99.50
2018-01-26T05:22:43.644Z,99.99
2018-01-26T05:23:43.602Z,99.60
2018-01-26T05:24:43.549Z,99.60
2018-01-26T05:25:43.500Z,99.88
2018-01-26T05:26:43.453Z,99.88
2018-01-26T05:27:43.404Z,99.79
2018-01-26T05:28:43.357Z,99.50
2018-01-26T05:29:43.308Z,99.98
2018-01-26T05:30:43.261Z,99.98
2018-01-26T05:31:43.213Z,99.60
2018-01-26T05:32:43.165Z,99.98
2018-01-26T05:33:43.117Z,99.99
2018-01-26T05:34:43.069Z,99.99
2018-01-26T05:35:43.020Z,99.99
2018-01-26T05:36:42.978Z,99.99
2018-01-26T05:37:42.924Z,99.99
2018-01-26T05:38:42.876Z,99.99
2018-01-26T05:39:42.828Z,99.99
2018-01-26T05:40:42.780Z,99.99
2018-01-26T05:41:42.731Z,99.99
2018-01-26T05:42:42.683Z,99.99
2018-01-26T05:43:42.636Z,99.99
2018-01-26T05:44:42.588Z,99.99
2018-01-26T05:45:42.588Z,99.99
2018-01-26T05:46:42.490Z,99.99
2018-01-26T05:47:42.443Z,99.99
2018-01-26T05:48:42.394Z,99.99
2018-01-26T05:49:42.346Z,99.99
2018-01-26T05:50:42.399Z,99.99
2018-01-26T05:51:42.249Z,99.99
2018-01-26T05:52:42.204Z,99.99
2018-01-26T05:53:42.153Z,99.99
2018-01-26T05:54:42.105Z,99.99
2018-01-26T05:55:42.057Z,99.99
2018-01-26T05:56:42.009Z,99.99
2018-01-26T05:57:41.959Z,99.99
2018-01-26T05:58:41.913Z,99.99
2018-01-26T05:59:41.864Z,99.99
2018-01-26T06:00:41.816Z,99.99
2018-01-26T06:01:41.766Z,99.99
2018-01-26T06:02:41.718Z,99.99
2018-01-26T06:03:41.683Z,99.99
2018-01-26T06:04:41.622Z,99.99
2018-01-26T06:05:41.577Z,99.99
2018-01-26T06:06:41.525Z,99.99
2018-01-26T06:07:41.483Z,99.99
2018-01-26T06:08:41.429Z,99.99
2018-01-26T06:09:41.380Z,99.99
2018-01-26T06:10:41.332Z,99.99
2018-01-26T06:11:41.284Z,99.99
2018-01-26T06:12:41.242Z,99.99
2018-01-26T06:13:41.190Z,99.99
2018-01-26T06:14:41.143Z,99.99
2018-01-26T06:15:41.090Z,99.99
2018-01-26T06:16:41.042Z,99.99
2018-01-26T06:17:40.993Z,99.99
2018-01-26T06:18:40.945Z,99.99
2018-01-26T06:19:40.896Z,99.99
2018-01-26T06:20:40.848Z,99.99
2018-01-26T06:21:40.799Z,99.99
2018-01-26T06:22:40.751Z,99.99
2018-01-26T06:23:40.704Z,99.99
2018-01-26T06:24:40.654Z,99.99
2018-01-26T06:25:40.605Z,99.99
2018-01-26T06:26:40.558Z,99.99
2018-01-26T06:27:40.509Z,99.99
2018-01-26T06:28:40.460Z,99.99
2018-01-26T06:29:40.411Z,99.99
2018-01-26T06:30:40.363Z,99.99
2018-01-26T06:31:40.315Z,99.99
2018-01-26T06:32:40.266Z,99.99
2018-01-26T06:33:40.217Z,99.99
2018-01-26T06:34:40.176Z,99.99
2018-01-26T06:35:40.121Z,99.99
2018-01-26T06:36:40.073Z,99.99
2018-01-26T06:37:40.023Z,99.99
2018-01-26T06:38:39.974Z,99.99
2018-01-26T06:39:39.927Z,99.99
2018-01-26T06:40:39.878Z,99.99
2018-01-26T06:41:39.876Z,99.99
2018-01-26T06:42:39.781Z,99.99
2018-01-26T06:43:39.733Z,99.99
2018-01-26T06:44:39.685Z,99.99
2018-01-26T06:45:39.635Z,99.99
2018-01-26T06:46:39.588Z,99.99
2018-01-26T06:47:39.538Z,99.99
2018-01-26T06:48:39.490Z,99.99
2018-01-26T06:49:39.440Z,99.99
2018-01-26T06:50:39.392Z,99.99
2018-01-26T06:51:39.344Z,99.99
2018-01-26T06:52:39.295Z,99.99
2018-01-26T06:53:39.246Z,99.99
2018-01-26T06:54:39.232Z,99.99
2018-01-26T06:55:39.149Z,99.99
2018-01-26T06:56:39.101Z,99.99
2018-01-26T06:57:39.052Z,99.99
2018-01-26T06:58:39.003Z,99.99
2018-01-26T06:59:38.955Z,99.99
2018-01-26T07:00:38.911Z,99.99
2018-01-26T07:01:38.858Z,99.99
2018-01-26T07:02:39.260Z,99.99
2018-01-26T07:03:39.166Z,99.99
2018-01-26T07:04:39.163Z,99.99
2018-01-26T07:05:39.063Z,99.99
2018-01-26T07:06:38.916Z,99.99
2018-01-26T07:07:38.816Z,99.99
2018-01-26T07:08:38.718Z,99.99
2018-01-26T07:09:38.719Z,99.99
2018-01-26T07:10:38.572Z,99.99
2018-01-26T07:11:38.475Z,99.99
2018-01-26T07:13:38.276Z,99.99
2018-01-26T07:14:38.278Z,99.99
2018-01-26T07:15:38.180Z,99.99
2018-01-26T07:16:38.132Z,99.99
2018-01-26T07:17:38.083Z,99.99
2018-01-26T07:18:38.035Z,99.99
2018-01-26T07:19:37.986Z,99.99
2018-01-26T07:20:37.938Z,99.99
2018-01-26T07:21:37.889Z,99.99
2018-01-26T07:22:37.839Z,99.99
2018-01-26T07:23:37.793Z,99.99
2018-01-26T07:24:37.745Z,99.99
2018-01-26T07:25:37.695Z,99.99
2018-01-26T07:26:37.654Z,99.99
2018-01-26T07:27:37.599Z,99.99
2018-01-26T07:28:37.550Z,99.99
2018-01-26T07:29:37.502Z,99.99
2018-01-26T07:30:37.453Z,99.99
2018-01-26T07:31:37.406Z,99.99
2018-01-26T07:32:37.357Z,99.97
2018-01-26T07:33:37.307Z,99.99
2018-01-26T07:34:37.258Z,99.50
2018-01-26T07:35:37.210Z,99.69
2018-01-26T07:36:37.163Z,99.88
2018-01-26T07:37:37.113Z,99.40
2018-01-26T07:38:37.066Z,99.40
2018-01-26T07:39:37.017Z,99.59
2018-01-26T07:40:36.969Z,99.88
2018-01-26T07:41:36.920Z,99.21
2018-01-26T07:42:36.872Z,99.40
2018-01-26T07:43:36.824Z,99.26
2018-01-26T07:44:36.776Z,99.40
2018-01-26T07:45:36.726Z,98.97
2018-01-26T07:46:36.678Z,98.83
2018-01-26T07:47:36.630Z,98.93
2018-01-26T07:48:36.582Z,98.93
2018-01-26T07:49:36.559Z,98.69
2018-01-26T07:50:36.484Z,99.26
2018-01-26T07:51:36.435Z,98.64
2018-01-26T07:52:36.389Z,99.21
2018-01-26T07:53:36.339Z,98.79
2018-01-26T07:54:36.291Z,98.60
2018-01-26T07:55:36.244Z,98.79
2018-01-26T07:56:36.194Z,98.79
2018-01-26T07:57:36.146Z,98.50
2018-01-26T07:58:36.101Z,98.60
2018-01-26T07:59:36.050Z,98.41
2018-01-26T08:00:36.002Z,98.79
2018-01-26T08:01:35.953Z,98.60
2018-01-26T08:02:35.954Z,98.50
2018-01-26T08:03:35.856Z,99.07
2018-01-26T08:04:35.809Z,97.93
2018-01-26T08:05:35.759Z,98.12
2018-01-26T08:06:35.712Z,97.83
2018-01-26T08:07:35.664Z,98.41
2018-01-26T08:08:35.617Z,98.31
2018-01-26T08:09:35.567Z,97.45
2018-01-26T08:10:35.520Z,98.22
2018-01-26T08:11:35.472Z,97.83
2018-01-26T08:12:35.422Z,97.45
2018-01-26T08:13:35.376Z,97.36
2018-01-26T08:14:35.326Z,97.36
2018-01-26T08:15:35.277Z,97.83
2018-01-26T08:16:35.231Z,97.08
2018-01-26T08:17:35.182Z,97.27
2018-01-26T08:18:35.133Z,97.17
2018-01-26T08:19:35.086Z,96.89
2018-01-26T08:20:35.041Z,97.27
2018-01-26T08:21:34.989Z,96.79
2018-01-26T08:22:34.942Z,96.98
2018-01-26T08:23:34.893Z,96.89
2018-01-26T08:24:34.846Z,96.89
2018-01-26T08:25:34.797Z,97.08
2018-01-26T08:26:34.798Z,97.08
2018-01-26T08:27:34.701Z,97.27
2018-01-26T08:28:34.653Z,96.79
2018-01-26T08:29:34.603Z,96.60
2018-01-26T08:30:34.556Z,96.89
2018-01-26T08:31:34.508Z,96.22
2018-01-26T08:32:34.460Z,96.22
2018-01-26T08:33:34.411Z,96.31
2018-01-26T08:34:34.363Z,96.60
2018-01-26T08:35:34.316Z,96.60
2018-01-26T08:36:34.271Z,96.41
2018-01-26T08:37:34.220Z,96.50
2018-01-26T08:38:34.171Z,96.31
2018-01-26T08:39:34.124Z,96.31
2018-01-26T08:40:34.076Z,96.31
2018-01-26T08:41:34.027Z,95.94
2018-01-26T08:42:33.979Z,96.22
2018-01-26T08:43:33.931Z,96.41
2018-01-26T08:44:33.889Z,96.12
2018-01-26T08:45:33.835Z,96.08
2018-01-26T08:46:33.787Z,95.51
2018-01-26T08:47:33.739Z,95.65
2018-01-26T08:48:33.691Z,95.89
2018-01-26T08:49:33.643Z,95.32
2018-01-26T08:50:33.595Z,95.70
2018-01-26T08:51:33.547Z,95.79
2018-01-26T08:52:33.506Z,95.51
2018-01-26T08:53:33.452Z,95.60
2018-01-26T08:55:33.357Z,95.51
2018-01-26T08:56:33.309Z,94.84
2018-01-26T08:57:33.261Z,95.03
2018-01-26T08:58:33.214Z,95.22
2018-01-26T08:59:33.217Z,94.84
2018-01-26T09:00:33.122Z,94.37
2018-01-26T09:01:33.069Z,94.65
2018-01-26T09:02:33.023Z,94.84
2018-01-26T09:03:32.976Z,94.37
2018-01-26T09:04:32.928Z,94.27
2018-01-26T09:05:32.881Z,94.56
2018-01-26T09:06:32.833Z,93.98
2018-01-26T09:07:32.784Z,94.46
2018-01-26T09:08:32.739Z,94.18
2018-01-26T09:09:32.690Z,93.98
2018-01-26T09:10:32.642Z,93.98
2018-01-26T09:11:32.596Z,93.89
2018-01-26T09:12:32.548Z,93.79
2018-01-26T09:13:32.499Z,94.03
2018-01-26T09:14:32.457Z,94.18
2018-01-26T09:15:32.405Z,94.03
2018-01-26T09:16:32.357Z,93.89
2018-01-26T09:17:32.308Z,93.98
2018-01-26T09:18:32.261Z,94.18
2018-01-26T09:19:32.213Z,93.89
2018-01-26T09:20:32.165Z,94.08
2018-01-26T09:21:32.118Z,93.60
2018-01-26T09:22:32.071Z,93.98
2018-01-26T09:23:32.022Z,93.98
2018-01-26T09:26:31.879Z,93.79
2018-01-26T09:27:31.832Z,93.98
2018-01-26T09:28:31.785Z,93.98
2018-01-26T09:29:31.737Z,93.98
2018-01-26T09:30:31.689Z,93.60
2018-01-26T09:31:31.642Z,93.04
2018-01-26T09:32:31.595Z,93.23
2018-01-26T09:33:31.546Z,93.41
2018-01-26T09:34:31.499Z,93.32
2018-01-26T09:35:31.452Z,93.23
2018-01-26T09:36:31.406Z,93.41
2018-01-26T09:37:31.357Z,93.23
2018-01-26T09:38:31.308Z,93.32
2018-01-26T09:39:31.263Z,93.23
2018-01-26T09:40:31.215Z,93.23
2018-01-26T09:41:31.166Z,93.41
2018-01-26T09:42:31.120Z,93.23
2018-01-26T09:43:31.094Z,93.51
2018-01-26T09:44:31.027Z,92.84
2018-01-26T09:45:30.979Z,93.23
2018-01-26T09:46:30.932Z,93.04
2018-01-26T09:47:30.885Z,93.32
2018-01-26T09:48:30.837Z,93.37
2018-01-26T09:49:30.788Z,93.18
2018-01-26T09:50:30.742Z,93.27
2018-01-26T09:51:30.695Z,93.13
2018-01-26T09:52:30.650Z,93.13
2018-01-26T09:53:30.601Z,93.37
2018-01-26T09:54:30.554Z,93.27
2018-01-26T09:55:30.521Z,92.75
2018-01-26T09:56:30.461Z,92.99
2018-01-26T09:57:30.413Z,93.08
2018-01-26T09:58:30.366Z,92.99
2018-01-26T09:59:30.418Z,93.08
2018-01-26T10:00:30.273Z,92.89
2018-01-26T10:01:30.225Z,92.99
2018-01-26T10:02:30.178Z,92.70
2018-01-26T10:03:30.131Z,92.89
2018-01-26T10:04:30.084Z,92.89
2018-01-26T10:05:30.088Z,92.99
2018-01-26T10:06:29.991Z,92.79
2018-01-26T10:07:29.944Z,93.08
2018-01-26T10:08:29.898Z,92.99
2018-01-26T10:09:29.850Z,92.79
2018-01-26T10:10:29.804Z,93.27
2018-01-26T10:11:29.757Z,93.27
2018-01-26T10:12:29.710Z,93.08
2018-01-26T10:13:29.692Z,92.41
2018-01-26T10:14:29.616Z,92.32
2018-01-26T10:15:29.569Z,92.32
2018-01-26T10:16:29.522Z,92.22
2018-01-26T10:17:29.475Z,92.32
2018-01-26T10:18:29.444Z,92.32
2018-01-26T10:19:29.383Z,92.32
2018-01-26T10:20:29.335Z,92.51
2018-01-26T10:21:29.287Z,92.41
2018-01-26T10:22:29.243Z,92.32
2018-01-26T10:23:29.196Z,92.41
2018-01-26T10:24:29.150Z,92.13
2018-01-26T10:25:29.152Z,92.32
2018-01-26T10:26:29.155Z,92.99
2018-01-26T10:27:29.009Z,92.89
2018-01-26T10:28:28.962Z,92.89
2018-01-26T10:29:28.915Z,92.89
2018-01-26T10:30:28.871Z,92.99
2018-01-26T10:31:28.822Z,92.89
2018-01-26T10:32:28.776Z,92.79
2018-01-26T10:33:28.729Z,92.70
2018-01-26T10:34:28.696Z,92.70
2018-01-26T10:35:28.635Z,93.08
2018-01-26T10:36:28.589Z,93.08
2018-01-26T10:37:28.541Z,93.27
2018-01-26T10:38:28.945Z,93.27
2018-01-26T10:39:28.799Z,93.27
2018-01-26T10:40:28.852Z,93.08
2018-01-26T10:41:28.754Z,93.55
2018-01-26T10:42:28.607Z,93.46
2018-01-26T10:43:28.516Z,93.27
2018-01-26T10:44:28.515Z,93.65
2018-01-26T10:45:28.368Z,93.46
2018-01-26T10:46:28.272Z,93.65
2018-01-26T10:47:28.176Z,93.65
2018-01-26T10:48:28.029Z,93.46
2018-01-26T10:49:28.081Z,93.27
2018-01-26T10:50:27.935Z,93.27
2018-01-26T10:51:27.888Z,93.27
2018-01-26T10:52:27.842Z,93.27
2018-01-26T10:53:27.793Z,93.37
2018-01-26T10:54:27.748Z,93.55
2018-01-26T10:55:27.701Z,93.55
2018-01-26T10:56:27.654Z,93.55
2018-01-26T10:57:27.607Z,93.84
2018-01-26T10:58:27.562Z,93.46
2018-01-26T10:59:27.514Z,93.65
2018-01-26T11:00:27.470Z,93.37
2018-01-26T11:01:27.423Z,93.65
2018-01-26T11:02:27.374Z,93.46
2018-01-26T11:03:27.327Z,93.65
2018-01-26T11:04:27.281Z,93.46
2018-01-26T11:05:27.233Z,93.46
2018-01-26T11:06:27.187Z,93.18
2018-01-26T11:07:27.191Z,93.08
2018-01-26T11:08:27.093Z,93.08
2018-01-26T11:09:27.047Z,93.08
2018-01-26T11:10:26.999Z,92.89
2018-01-26T11:11:26.954Z,93.08
2018-01-26T11:12:26.906Z,93.46
2018-01-26T11:13:26.859Z,93.37
2018-01-26T11:14:26.814Z,93.27
2018-01-26T11:15:26.767Z,93.18
2018-01-26T11:16:26.721Z,93.08
2018-01-26T11:17:26.674Z,93.18
2018-01-26T11:19:26.581Z,93.27
2018-01-26T11:20:26.534Z,93.46
2018-01-26T11:21:26.487Z,93.18
2018-01-26T11:22:26.440Z,92.99
2018-01-26T11:23:26.394Z,92.79
2018-01-26T11:24:26.347Z,92.70
2018-01-26T11:25:26.302Z,93.27
2018-01-26T11:26:26.255Z,93.55
2018-01-26T11:27:26.209Z,93.46
2018-01-26T11:28:26.162Z,93.37
2018-01-26T11:29:26.115Z,93.55
2018-01-26T11:30:26.069Z,93.46
2018-01-26T11:31:26.023Z,93.55
2018-01-26T11:32:25.976Z,93.46
2018-01-26T11:33:25.928Z,93.60
2018-01-26T11:34:25.883Z,93.27
2018-01-26T11:35:25.887Z,93.37
2018-01-26T11:36:25.791Z,93.51
2018-01-26T11:37:25.743Z,93.70
2018-01-26T11:38:25.697Z,93.41
2018-01-26T11:39:25.651Z,93.60
2018-01-26T11:40:25.605Z,93.46
2018-01-26T11:41:25.557Z,92.94
2018-01-26T11:42:25.512Z,93.70
2018-01-26T11:43:25.474Z,93.41
2018-01-26T11:44:25.420Z,93.41
2018-01-26T11:45:25.372Z,93.22
2018-01-26T11:46:25.325Z,93.22
2018-01-26T11:47:25.280Z,93.41
2018-01-26T11:48:25.234Z,93.32
2018-01-26T11:49:25.185Z,93.22
2018-01-26T11:50:25.140Z,93.13
2018-01-26T11:51:25.099Z,93.13
2018-01-26T11:52:25.049Z,93.03
2018-01-26T11:53:25.002Z,93.03
2018-01-26T11:54:24.956Z,92.94
2018-01-26T11:55:24.909Z,92.94
2018-01-26T11:56:24.863Z,93.13
2018-01-26T11:57:24.816Z,92.94
2018-01-26T11:58:24.769Z,93.03
2018-01-26T11:59:24.730Z,92.94
2018-01-26T12:00:24.678Z,92.94
2018-01-26T12:01:24.631Z,92.94
2018-01-26T12:02:24.587Z,92.94
2018-01-26T12:03:24.539Z,92.84
2018-01-26T12:04:24.493Z,93.22
2018-01-26T12:05:24.446Z,93.13
2018-01-26T12:06:24.410Z,92.46
2018-01-26T12:07:24.354Z,92.36
2018-01-26T12:08:24.309Z,92.79
2018-01-26T12:09:24.261Z,92.32
2018-01-26T12:10:24.216Z,92.22
2018-01-26T12:11:24.169Z,92.22
2018-01-26T12:12:24.123Z,92.22
2018-01-26T12:13:24.077Z,91.65
2018-01-26T12:14:24.032Z,91.84
2018-01-26T12:15:23.986Z,91.94
2018-01-26T12:16:23.939Z,92.22
2018-01-26T12:17:23.895Z,92.22
2018-01-26T12:18:23.876Z,91.55
2018-01-26T12:19:23.802Z,91.94
2018-01-26T12:20:23.757Z,91.65
2018-01-26T12:21:23.710Z,92.03
2018-01-26T12:22:23.665Z,91.55
2018-01-26T12:23:23.619Z,91.36
2018-01-26T12:24:23.574Z,91.27
2018-01-26T12:25:23.527Z,91.65
2018-01-26T12:26:23.481Z,91.46
2018-01-26T12:27:23.435Z,91.46
2018-01-26T12:28:23.391Z,91.13
2018-01-26T12:29:23.344Z,91.55
2018-01-26T12:30:23.298Z,91.46
2018-01-26T12:31:23.256Z,90.79
2018-01-26T12:32:23.208Z,91.08
2018-01-26T12:33:23.161Z,91.31
2018-01-26T12:34:23.115Z,91.17
2018-01-26T12:35:23.070Z,91.36
2018-01-26T12:36:23.025Z,91.27
2018-01-26T12:37:23.329Z,91.27
2018-01-26T12:38:22.939Z,91.17
2018-01-26T12:39:22.886Z,91.46
2018-01-26T12:40:22.842Z,91.46
2018-01-26T12:41:22.795Z,91.55
2018-01-26T12:42:22.750Z,91.27
2018-01-26T12:43:22.704Z,91.27
2018-01-26T12:44:22.659Z,91.17
2018-01-26T12:45:22.613Z,91.17
2018-01-26T12:46:22.568Z,91.27
2018-01-26T12:47:22.522Z,90.89
2018-01-26T12:48:22.476Z,91.17
2018-01-26T12:49:22.535Z,90.79
2018-01-26T12:50:22.384Z,91.36
2018-01-26T12:51:22.346Z,91.55
2018-01-26T12:52:22.293Z,91.36
2018-01-26T12:53:22.247Z,91.17
2018-01-26T12:54:22.251Z,91.08
2018-01-26T12:55:22.156Z,91.17
2018-01-26T12:56:22.109Z,91.46
2018-01-26T12:57:22.077Z,91.36
2018-01-26T12:58:22.118Z,91.36